sensor_id;sensor_type;location;lat;lon;timestamp;pressure;altitude;pressure_sealevel;temperature
63689;BMP280;54895;40.928;14.480;2023-04-15T00:00:31;100499.63;;;13.52
63689;BMP280;54895;40.928;14.480;2023-04-15T00:02:59;100498.50;;;13.33
63689;BMP280;54895;40.928;14.480;2023-04-15T00:05:29;100491.41;;;13.50
63689;BMP280;54895;40.928;14.480;2023-04-15T00:07:55;100491.72;;;13.24
63689;BMP280;54895;40.928;14.480;2023-04-15T00:10:21;100466.09;;;13.36
63689;BMP280;54895;40.928;14.480;2023-04-15T00:12:51;100472.13;;;13.22
63689;BMP280;54895;40.928;14.480;2023-04-15T00:15:18;100466.44;;;13.25
63689;BMP280;54895;40.928;14.480;2023-04-15T00:17:44;100460.72;;;13.07
63689;BMP280;54895;40.928;14.480;2023-04-15T00:20:11;100475.38;;;13.58
63689;BMP280;54895;40.928;14.480;2023-04-15T00:22:37;100501.34;;;13.72
63689;BMP280;54895;40.928;14.480;2023-04-15T00:25:03;100490.31;;;13.53
63689;BMP280;54895;40.928;14.480;2023-04-15T00:27:30;100485.66;;;13.54
63689;BMP280;54895;40.928;14.480;2023-04-15T00:29:56;100474.66;;;13.42
63689;BMP280;54895;40.928;14.480;2023-04-15T00:32:23;100465.03;;;13.32
63689;BMP280;54895;40.928;14.480;2023-04-15T00:34:49;100474.13;;;13.36
63689;BMP280;54895;40.928;14.480;2023-04-15T00:37:16;100475.19;;;13.33
63689;BMP280;54895;40.928;14.480;2023-04-15T00:39:42;100456.81;;;13.23
63689;BMP280;54895;40.928;14.480;2023-04-15T00:42:09;100445.94;;;13.13
63689;BMP280;54895;40.928;14.480;2023-04-15T00:44:35;100432.56;;;12.98
63689;BMP280;54895;40.928;14.480;2023-04-15T00:47:03;100421.00;;;13.11
63689;BMP280;54895;40.928;14.480;2023-04-15T00:49:30;100431.91;;;13.27
63689;BMP280;54895;40.928;14.480;2023-04-15T00:51:57;100420.84;;;13.31
63689;BMP280;54895;40.928;14.480;2023-04-15T00:54:23;100415.66;;;13.25
63689;BMP280;54895;40.928;14.480;2023-04-15T00:56:50;100422.28;;;13.32
63689;BMP280;54895;40.928;14.480;2023-04-15T00:59:16;100414.44;;;13.27
63689;BMP280;54895;40.928;14.480;2023-04-15T01:01:44;100424.78;;;13.52
63689;BMP280;54895;40.928;14.480;2023-04-15T01:06:56;100439.69;;;13.78
63689;BMP280;54895;40.928;14.480;2023-04-15T01:09:23;100485.66;;;14.06
63689;BMP280;54895;40.928;14.480;2023-04-15T01:11:50;100475.34;;;13.65
63689;BMP280;54895;40.928;14.480;2023-04-15T01:14:17;100453.66;;;13.46
63689;BMP280;54895;40.928;14.480;2023-04-15T01:16:43;100448.44;;;13.48
63689;BMP280;54895;40.928;14.480;2023-04-15T01:19:10;100447.38;;;13.44
63689;BMP280;54895;40.928;14.480;2023-04-15T01:21:37;100431.00;;;13.40
63689;BMP280;54895;40.928;14.480;2023-04-15T01:24:09;100440.22;;;13.54
63689;BMP280;54895;40.928;14.480;2023-04-15T01:26:39;100446.16;;;13.52
63689;BMP280;54895;40.928;14.480;2023-04-15T01:29:07;100447.72;;;13.55
63689;BMP280;54895;40.928;14.480;2023-04-15T01:31:34;100427.97;;;13.36
63689;BMP280;54895;40.928;14.480;2023-04-15T01:34:20;100447.38;;;13.44
63689;BMP280;54895;40.928;14.480;2023-04-15T01:37:04;100415.50;;;13.23
63689;BMP280;54895;40.928;14.480;2023-04-15T01:39:31;100425.13;;;13.27
63689;BMP280;54895;40.928;14.480;2023-04-15T01:41:57;100422.47;;;13.27
63689;BMP280;54895;40.928;14.480;2023-04-15T01:44:25;100424.06;;;13.29
63689;BMP280;54895;40.928;14.480;2023-04-15T01:46:52;100432.59;;;13.35
63689;BMP280;54895;40.928;14.480;2023-04-15T01:49:20;100430.81;;;13.45
63689;BMP280;54895;40.928;14.480;2023-04-15T01:51:48;100431.19;;;13.49
63689;BMP280;54895;40.928;14.480;2023-04-15T01:54:16;100440.06;;;13.59
63689;BMP280;54895;40.928;14.480;2023-04-15T01:56:45;100426.19;;;13.38
63689;BMP280;54895;40.928;14.480;2023-04-15T01:59:13;100400.19;;;13.17
63689;BMP280;54895;40.928;14.480;2023-04-15T02:01:40;100395.03;;;13.26
63689;BMP280;54895;40.928;14.480;2023-04-15T02:04:08;100397.16;;;13.20
63689;BMP280;54895;40.928;14.480;2023-04-15T02:06:43;100385.03;;;13.12
63689;BMP280;54895;40.928;14.480;2023-04-15T02:09:10;100380.97;;;13.18
63689;BMP280;54895;40.928;14.480;2023-04-15T02:11:38;100370.63;;;13.15
63689;BMP280;54895;40.928;14.480;2023-04-15T02:14:06;100371.84;;;13.28
63689;BMP280;54895;40.928;14.480;2023-04-15T02:16:36;100383.44;;;13.38
63689;BMP280;54895;40.928;14.480;2023-04-15T02:19:04;100378.44;;;13.35
63689;BMP280;54895;40.928;14.480;2023-04-15T02:21:31;100374.34;;;13.41
63689;BMP280;54895;40.928;14.480;2023-04-15T02:23:59;100365.09;;;13.42
63689;BMP280;54895;40.928;14.480;2023-04-15T02:26:27;100375.59;;;13.48
63689;BMP280;54895;40.928;14.480;2023-04-15T02:28:55;100389.13;;;13.65
63689;BMP280;54895;40.928;14.480;2023-04-15T02:31:22;100386.09;;;13.46
63689;BMP280;54895;40.928;14.480;2023-04-15T02:33:50;100386.97;;;13.48
63689;BMP280;54895;40.928;14.480;2023-04-15T02:36:18;100401.22;;;13.58
63689;BMP280;54895;40.928;14.480;2023-04-15T02:38:47;100427.19;;;13.95
63689;BMP280;54895;40.928;14.480;2023-04-15T02:41:16;100449.63;;;14.07
63689;BMP280;54895;40.928;14.480;2023-04-15T02:43:46;100470.25;;;14.29
63689;BMP280;54895;40.928;14.480;2023-04-15T02:46:15;100454.97;;;13.92
63689;BMP280;54895;40.928;14.480;2023-04-15T02:48:43;100436.44;;;13.94
63689;BMP280;54895;40.928;14.480;2023-04-15T02:51:12;100441.41;;;14.05
63689;BMP280;54895;40.928;14.480;2023-04-15T02:53:40;100421.34;;;13.67
63689;BMP280;54895;40.928;14.480;2023-04-15T02:56:08;100402.94;;;13.78
63689;BMP280;54895;40.928;14.480;2023-04-15T02:58:35;100385.34;;;13.60
63689;BMP280;54895;40.928;14.480;2023-04-15T03:01:03;100377.38;;;13.45
63689;BMP280;54895;40.928;14.480;2023-04-15T03:06:40;100382.84;;;13.70
63689;BMP280;54895;40.928;14.480;2023-04-15T03:09:09;100388.00;;;13.75
63689;BMP280;54895;40.928;14.480;2023-04-15T03:11:38;100393.72;;;13.72
63689;BMP280;54895;40.928;14.480;2023-04-15T03:14:10;100392.59;;;13.90
63689;BMP280;54895;40.928;14.480;2023-04-15T03:16:42;100437.84;;;14.10
63689;BMP280;54895;40.928;14.480;2023-04-15T03:19:09;100428.59;;;13.96
63689;BMP280;54895;40.928;14.480;2023-04-15T03:21:41;100439.97;;;14.04
63689;BMP280;54895;40.928;14.480;2023-04-15T03:24:09;100425.41;;;13.90
63689;BMP280;54895;40.928;14.480;2023-04-15T03:26:37;100425.56;;;13.92
63689;BMP280;54895;40.928;14.480;2023-04-15T03:29:11;100412.25;;;13.70
63689;BMP280;54895;40.928;14.480;2023-04-15T03:31:40;100394.81;;;13.61
63689;BMP280;54895;40.928;14.480;2023-04-15T03:34:08;100405.50;;;13.69
63689;BMP280;54895;40.928;14.480;2023-04-15T03:36:36;100391.97;;;13.52
63689;BMP280;54895;40.928;14.480;2023-04-15T03:39:04;100359.94;;;13.29
63689;BMP280;54895;40.928;14.480;2023-04-15T03:41:31;100356.53;;;13.44
63689;BMP280;54895;40.928;14.480;2023-04-15T03:43:59;100348.91;;;13.18
63689;BMP280;54895;40.928;14.480;2023-04-15T03:46:27;100345.69;;;13.05
63689;BMP280;54895;40.928;14.480;2023-04-15T03:48:54;100346.03;;;13.23
63689;BMP280;54895;40.928;14.480;2023-04-15T03:51:22;100339.31;;;13.15
63689;BMP280;54895;40.928;14.480;2023-04-15T03:53:49;100339.09;;;13.21
63689;BMP280;54895;40.928;14.480;2023-04-15T03:56:17;100340.69;;;13.23
63689;BMP280;54895;40.928;14.480;2023-04-15T03:58:44;100327.16;;;12.92
63689;BMP280;54895;40.928;14.480;2023-04-15T04:01:12;100324.31;;;13.12
63689;BMP280;54895;40.928;14.480;2023-04-15T04:03:40;100338.03;;;13.23
63689;BMP280;54895;40.928;14.480;2023-04-15T04:06:08;100346.38;;;13.35
63689;BMP280;54895;40.928;14.480;2023-04-15T04:08:36;100343.34;;;13.38
63689;BMP280;54895;40.928;14.480;2023-04-15T04:11:04;100348.81;;;13.55
63689;BMP280;54895;40.928;14.480;2023-04-15T04:13:32;100346.34;;;13.50
63689;BMP280;54895;40.928;14.480;2023-04-15T04:15:59;100331.44;;;13.39
63689;BMP280;54895;40.928;14.480;2023-04-15T04:18:27;100353.50;;;13.40
63689;BMP280;54895;40.928;14.480;2023-04-15T04:20:54;100355.63;;;13.41
63689;BMP280;54895;40.928;14.480;2023-04-15T04:23:22;100349.94;;;13.37
63689;BMP280;54895;40.928;14.480;2023-04-15T04:25:50;100355.28;;;13.52
63689;BMP280;54895;40.928;14.480;2023-04-15T04:28:17;100363.94;;;13.75
63689;BMP280;54895;40.928;14.480;2023-04-15T04:30:45;100359.72;;;13.57
63689;BMP280;54895;40.928;14.480;2023-04-15T04:33:12;100339.25;;;13.52
63689;BMP280;54895;40.928;14.480;2023-04-15T04:35:40;100350.56;;;13.75
63689;BMP280;54895;40.928;14.480;2023-04-15T04:38:08;100343.47;;;13.63
63689;BMP280;54895;40.928;14.480;2023-04-15T04:40:35;100344.69;;;13.77
63689;BMP280;54895;40.928;14.480;2023-04-15T04:43:03;100325.63;;;13.65
63689;BMP280;54895;40.928;14.480;2023-04-15T04:45:30;100326.69;;;13.77
63689;BMP280;54895;40.928;14.480;2023-04-15T04:47:58;100316.69;;;13.78
63689;BMP280;54895;40.928;14.480;2023-04-15T04:50:25;100322.00;;;13.85
63689;BMP280;54895;40.928;14.480;2023-04-15T04:52:53;100331.91;;;14.07
63689;BMP280;54895;40.928;14.480;2023-04-15T04:55:20;100323.25;;;13.84
63689;BMP280;54895;40.928;14.480;2023-04-15T04:57:48;100328.16;;;13.63
63689;BMP280;54895;40.928;14.480;2023-04-15T05:00:16;100297.09;;;13.75
63689;BMP280;54895;40.928;14.480;2023-04-15T05:06:47;100272.97;;;13.43
63689;BMP280;54895;40.928;14.480;2023-04-15T05:09:15;100292.50;;;13.68
63689;BMP280;54895;40.928;14.480;2023-04-15T05:11:42;100283.72;;;13.75
63689;BMP280;54895;40.928;14.480;2023-04-15T05:14:10;100262.75;;;13.64
63689;BMP280;54895;40.928;14.480;2023-04-15T05:16:38;100250.03;;;13.72
63689;BMP280;54895;40.928;14.480;2023-04-15T05:19:05;100250.19;;;13.89
63689;BMP280;54895;40.928;14.480;2023-04-15T05:21:34;100327.72;;;14.53
63689;BMP280;54895;40.928;14.480;2023-04-15T05:24:01;100323.13;;;14.14
63689;BMP280;54895;40.928;14.480;2023-04-15T05:26:29;100267.41;;;13.96
63689;BMP280;54895;40.928;14.480;2023-04-15T05:28:57;100225.72;;;13.61
63689;BMP280;54895;40.928;14.480;2023-04-15T05:31:25;100230.53;;;13.94
63689;BMP280;54895;40.928;14.480;2023-04-15T05:33:53;100229.31;;;13.88
63689;BMP280;54895;40.928;14.480;2023-04-15T05:36:21;100288.69;;;14.18
63689;BMP280;54895;40.928;14.480;2023-04-15T05:38:48;100239.00;;;13.76
63689;BMP280;54895;40.928;14.480;2023-04-15T05:41:16;100244.06;;;13.96
63689;BMP280;54895;40.928;14.480;2023-04-15T05:43:44;100219.84;;;13.55
63689;BMP280;54895;40.928;14.480;2023-04-15T05:46:11;100198.44;;;13.62
63689;BMP280;54895;40.928;14.480;2023-04-15T05:48:39;100235.97;;;14.04
63689;BMP280;54895;40.928;14.480;2023-04-15T05:51:07;100214.50;;;13.55
63689;BMP280;54895;40.928;14.480;2023-04-15T05:53:35;100204.03;;;13.81
63689;BMP280;54895;40.928;14.480;2023-04-15T05:56:02;100265.97;;;14.51
63689;BMP280;54895;40.928;14.480;2023-04-15T05:58:30;100296.38;;;14.46
63689;BMP280;54895;40.928;14.480;2023-04-15T06:00:58;100268.50;;;14.49
63689;BMP280;54895;40.928;14.480;2023-04-15T06:07:19;100304.75;;;14.67
63689;BMP280;54895;40.928;14.480;2023-04-15T06:09:47;100286.59;;;14.66
63689;BMP280;54895;40.928;14.480;2023-04-15T06:12:15;100238.44;;;14.34
63689;BMP280;54895;40.928;14.480;2023-04-15T06:14:43;100218.91;;;13.99
63689;BMP280;54895;40.928;14.480;2023-04-15T06:17:10;100171.13;;;13.71
63689;BMP280;54895;40.928;14.480;2023-04-15T06:19:38;100174.16;;;13.68
63689;BMP280;54895;40.928;14.480;2023-04-15T06:22:06;100131.88;;;13.49
63689;BMP280;54895;40.928;14.480;2023-04-15T06:24:34;100048.72;;;12.74
63689;BMP280;54895;40.928;14.480;2023-04-15T06:27:03;100032.81;;;12.84
63689;BMP280;54895;40.928;14.480;2023-04-15T06:29:31;100005.59;;;12.78
63689;BMP280;54895;40.928;14.480;2023-04-15T06:31:58;99974.44;;;12.88
63689;BMP280;54895;40.928;14.480;2023-04-15T06:34:26;99967.13;;;12.88
63689;BMP280;54895;40.928;14.480;2023-04-15T06:36:53;99965.38;;;13.15
63689;BMP280;54895;40.928;14.480;2023-04-15T06:39:21;99965.97;;;13.30
63689;BMP280;54895;40.928;14.480;2023-04-15T06:41:48;99954.50;;;13.13
63689;BMP280;54895;40.928;14.480;2023-04-15T06:44:16;99975.75;;;13.77
63689;BMP280;54895;40.928;14.480;2023-04-15T06:46:44;100016.72;;;13.96
63689;BMP280;54895;40.928;14.480;2023-04-15T06:49:12;100065.53;;;14.21
63689;BMP280;54895;40.928;14.480;2023-04-15T06:51:41;100079.56;;;14.29
63689;BMP280;54895;40.928;14.480;2023-04-15T06:54:09;100068.13;;;14.29
63689;BMP280;54895;40.928;14.480;2023-04-15T06:56:36;100105.44;;;14.44
63689;BMP280;54895;40.928;14.480;2023-04-15T06:59:04;100107.56;;;14.62
63689;BMP280;54895;40.928;14.480;2023-04-15T07:01:31;100143.94;;;14.82
63689;BMP280;54895;40.928;14.480;2023-04-15T07:07:20;100195.25;;;15.22
63689;BMP280;54895;40.928;14.480;2023-04-15T07:09:47;100153.03;;;15.30
63689;BMP280;54895;40.928;14.480;2023-04-15T07:12:15;100237.00;;;15.59
63689;BMP280;54895;40.928;14.480;2023-04-15T07:14:42;100242.56;;;15.71
63689;BMP280;54895;40.928;14.480;2023-04-15T07:17:10;100216.56;;;15.90
63689;BMP280;54895;40.928;14.480;2023-04-15T07:19:38;100234.34;;;15.95
63689;BMP280;54895;40.928;14.480;2023-04-15T07:22:06;100251.31;;;15.71
63689;BMP280;54895;40.928;14.480;2023-04-15T07:24:34;100324.84;;;16.21
63689;BMP280;54895;40.928;14.480;2023-04-15T07:27:01;100322.25;;;16.14
63689;BMP280;54895;40.928;14.480;2023-04-15T07:29:30;100291.63;;;16.07
63689;BMP280;54895;40.928;14.480;2023-04-15T07:31:58;100367.19;;;16.49
63689;BMP280;54895;40.928;14.480;2023-04-15T07:34:27;100352.91;;;16.37
63689;BMP280;54895;40.928;14.480;2023-04-15T07:36:55;100308.38;;;16.34
63689;BMP280;54895;40.928;14.480;2023-04-15T07:39:22;100301.28;;;16.29
63689;BMP280;54895;40.928;14.480;2023-04-15T07:41:50;100336.56;;;16.52
63689;BMP280;54895;40.928;14.480;2023-04-15T07:44:18;100316.53;;;16.72
63689;BMP280;54895;40.928;14.480;2023-04-15T07:46:46;100353.59;;;16.83
63689;BMP280;54895;40.928;14.480;2023-04-15T07:49:13;100398.69;;;16.75
63689;BMP280;54895;40.928;14.480;2023-04-15T07:51:42;100405.84;;;16.99
63689;BMP280;54895;40.928;14.480;2023-04-15T07:54:10;100418.97;;;16.95
63689;BMP280;54895;40.928;14.480;2023-04-15T07:56:38;100458.16;;;16.88
63689;BMP280;54895;40.928;14.480;2023-04-15T07:59:05;100453.97;;;17.14
63689;BMP280;54895;40.928;14.480;2023-04-15T08:01:33;100449.47;;;17.26
63689;BMP280;54895;40.928;14.480;2023-04-15T08:07:29;100485.34;;;17.76
63689;BMP280;54895;40.928;14.480;2023-04-15T08:09:57;100509.94;;;18.20
63689;BMP280;54895;40.928;14.480;2023-04-15T08:12:25;100514.19;;;18.23
63689;BMP280;54895;40.928;14.480;2023-04-15T08:14:52;100533.47;;;18.48
63689;BMP280;54895;40.928;14.480;2023-04-15T08:17:21;100543.22;;;18.53
63689;BMP280;54895;40.928;14.480;2023-04-15T08:19:49;100563.34;;;18.71
63689;BMP280;54895;40.928;14.480;2023-04-15T08:22:17;100589.22;;;18.94
63689;BMP280;54895;40.928;14.480;2023-04-15T08:24:45;100593.81;;;19.03
63689;BMP280;54895;40.928;14.480;2023-04-15T08:27:12;100620.91;;;19.24
63689;BMP280;54895;40.928;14.480;2023-04-15T08:29:41;100621.00;;;19.57
63689;BMP280;54895;40.928;14.480;2023-04-15T08:32:08;100644.22;;;19.71
63689;BMP280;54895;40.928;14.480;2023-04-15T08:34:36;100645.66;;;19.93
63689;BMP280;54895;40.928;14.480;2023-04-15T08:37:04;100648.19;;;19.70
63689;BMP280;54895;40.928;14.480;2023-04-15T08:39:32;100637.13;;;19.05
63689;BMP280;54895;40.928;14.480;2023-04-15T08:42:02;100632.47;;;19.36
63689;BMP280;54895;40.928;14.480;2023-04-15T08:44:32;100629.16;;;19.47
63689;BMP280;54895;40.928;14.480;2023-04-15T08:47:00;100631.78;;;19.36
63689;BMP280;54895;40.928;14.480;2023-04-15T08:49:29;100626.47;;;19.47
63689;BMP280;54895;40.928;14.480;2023-04-15T08:51:57;100643.16;;;19.55
63689;BMP280;54895;40.928;14.480;2023-04-15T08:54:26;100629.84;;;19.17
63689;BMP280;54895;40.928;14.480;2023-04-15T08:56:57;100632.81;;;19.21
63689;BMP280;54895;40.928;14.480;2023-04-15T08:59:25;100633.31;;;18.99
63689;BMP280;54895;40.928;14.480;2023-04-15T09:01:53;100624.94;;;19.04
63689;BMP280;54895;40.928;14.480;2023-04-15T09:04:21;100632.84;;;18.63
63689;BMP280;54895;40.928;14.480;2023-04-15T09:06:49;100621.94;;;18.42
63689;BMP280;54895;40.928;14.480;2023-04-15T09:09:18;100611.44;;;18.27
63689;BMP280;54895;40.928;14.480;2023-04-15T09:11:46;100572.34;;;18.26
63689;BMP280;54895;40.928;14.480;2023-04-15T09:14:16;100564.22;;;17.59
63689;BMP280;54895;40.928;14.480;2023-04-15T09:16:57;100556.16;;;17.23
63689;BMP280;54895;40.928;14.480;2023-04-15T09:19:25;100534.09;;;16.89
63689;BMP280;54895;40.928;14.480;2023-04-15T09:21:55;100493.84;;;16.72
63689;BMP280;54895;40.928;14.480;2023-04-15T09:24:35;100468.81;;;16.43
63689;BMP280;54895;40.928;14.480;2023-04-15T09:27:04;100438.75;;;16.01
63689;BMP280;54895;40.928;14.480;2023-04-15T09:29:32;100387.16;;;15.59
63689;BMP280;54895;40.928;14.480;2023-04-15T09:32:13;100408.69;;;15.52
63689;BMP280;54895;40.928;14.480;2023-04-15T09:34:41;100426.13;;;15.60
63689;BMP280;54895;40.928;14.480;2023-04-15T09:37:09;100431.63;;;15.62
63689;BMP280;54895;40.928;14.480;2023-04-15T09:39:47;100424.78;;;15.86
63689;BMP280;54895;40.928;14.480;2023-04-15T09:42:16;100425.34;;;15.67
63689;BMP280;54895;40.928;14.480;2023-04-15T09:44:50;100414.94;;;16.15
63689;BMP280;54895;40.928;14.480;2023-04-15T09:47:29;100394.09;;;15.79
63689;BMP280;54895;40.928;14.480;2023-04-15T09:49:59;100357.38;;;15.99
63689;BMP280;54895;40.928;14.480;2023-04-15T09:52:28;100346.78;;;16.01
63689;BMP280;54895;40.928;14.480;2023-04-15T09:54:57;100338.44;;;16.23
63689;BMP280;54895;40.928;14.480;2023-04-15T09:57:33;100330.81;;;16.29
63689;BMP280;54895;40.928;14.480;2023-04-15T10:00:07;100310.88;;;15.96
63689;BMP280;54895;40.928;14.480;2023-04-15T10:02:36;100255.56;;;15.74
63689;BMP280;54895;40.928;14.480;2023-04-15T10:07:56;100144.66;;;15.43
63689;BMP280;54895;40.928;14.480;2023-04-15T10:10:24;100119.81;;;15.52
63689;BMP280;54895;40.928;14.480;2023-04-15T10:12:52;100149.06;;;15.58
63689;BMP280;54895;40.928;14.480;2023-04-15T10:15:21;100138.31;;;15.48
63689;BMP280;54895;40.928;14.480;2023-04-15T10:17:49;100168.75;;;15.70
63689;BMP280;54895;40.928;14.480;2023-04-15T10:20:22;100144.19;;;15.73
63689;BMP280;54895;40.928;14.480;2023-04-15T10:22:52;100160.97;;;15.74
63689;BMP280;54895;40.928;14.480;2023-04-15T10:25:20;100191.47;;;16.14
63689;BMP280;54895;40.928;14.480;2023-04-15T10:27:49;100260.75;;;16.35
63689;BMP280;54895;40.928;14.480;2023-04-15T10:30:19;100348.50;;;16.68
63689;BMP280;54895;40.928;14.480;2023-04-15T10:32:47;100394.44;;;16.36
63689;BMP280;54895;40.928;14.480;2023-04-15T10:35:16;100400.72;;;16.48
63689;BMP280;54895;40.928;14.480;2023-04-15T10:37:45;100399.88;;;16.55
63689;BMP280;54895;40.928;14.480;2023-04-15T10:40:29;100390.50;;;16.37
63689;BMP280;54895;40.928;14.480;2023-04-15T10:43:01;100393.25;;;16.56
63689;BMP280;54895;40.928;14.480;2023-04-15T10:45:34;100387.88;;;16.56
63689;BMP280;54895;40.928;14.480;2023-04-15T10:48:06;100379.84;;;16.30
63689;BMP280;54895;40.928;14.480;2023-04-15T10:50:35;100375.50;;;16.34
63689;BMP280;54895;40.928;14.480;2023-04-15T10:53:04;100379.53;;;16.52
63689;BMP280;54895;40.928;14.480;2023-04-15T10:55:32;100388.13;;;16.50
63689;BMP280;54895;40.928;14.480;2023-04-15T10:58:01;100405.75;;;16.70
63689;BMP280;54895;40.928;14.480;2023-04-15T11:00:30;100401.63;;;16.60
63689;BMP280;54895;40.928;14.480;2023-04-15T11:03:05;100385.72;;;16.45
63689;BMP280;54895;40.928;14.480;2023-04-15T11:08:59;100345.53;;;16.28
63689;BMP280;54895;40.928;14.480;2023-04-15T11:12:08;100345.03;;;16.13
63689;BMP280;54895;40.928;14.480;2023-04-15T11:14:39;100343.47;;;16.46
63689;BMP280;54895;40.928;14.480;2023-04-15T11:17:08;100356.09;;;16.26
63689;BMP280;54895;40.928;14.480;2023-04-15T11:19:37;100359.09;;;16.30
63689;BMP280;54895;40.928;14.480;2023-04-15T11:22:09;100332.44;;;16.15
63689;BMP280;54895;40.928;14.480;2023-04-15T11:24:47;100319.31;;;16.19
63689;BMP280;54895;40.928;14.480;2023-04-15T11:27:21;100330.94;;;16.22
63689;BMP280;54895;40.928;14.480;2023-04-15T11:29:48;100306.31;;;15.89
63689;BMP280;54895;40.928;14.480;2023-04-15T11:32:16;100309.28;;;16.10
63689;BMP280;54895;40.928;14.480;2023-04-15T11:34:45;100297.41;;;16.13
63689;BMP280;54895;40.928;14.480;2023-04-15T11:37:12;100305.41;;;16.30
63689;BMP280;54895;40.928;14.480;2023-04-15T11:39:41;100291.28;;;16.39
63689;BMP280;54895;40.928;14.480;2023-04-15T11:42:16;100275.34;;;16.05
63689;BMP280;54895;40.928;14.480;2023-04-15T11:44:44;100276.59;;;16.40
63689;BMP280;54895;40.928;14.480;2023-04-15T11:47:22;100314.22;;;16.59
63689;BMP280;54895;40.928;14.480;2023-04-15T11:49:50;100305.44;;;16.49
63689;BMP280;54895;40.928;14.480;2023-04-15T11:52:16;100283.44;;;16.60
63689;BMP280;54895;40.928;14.480;2023-04-15T11:54:42;100293.91;;;16.75
63689;BMP280;54895;40.928;14.480;2023-04-15T11:57:09;100312.59;;;16.73
63689;BMP280;54895;40.928;14.480;2023-04-15T11:59:42;100311.63;;;16.78
63689;BMP280;54895;40.928;14.480;2023-04-15T12:02:11;100276.09;;;16.70
63689;BMP280;54895;40.928;14.480;2023-04-15T12:04:38;100278.53;;;16.75
63689;BMP280;54895;40.928;14.480;2023-04-15T12:07:04;100236.78;;;16.55
63689;BMP280;54895;40.928;14.480;2023-04-15T12:09:36;100250.66;;;16.71
63689;BMP280;54895;40.928;14.480;2023-04-15T12:12:03;100279.66;;;17.01
63689;BMP280;54895;40.928;14.480;2023-04-15T12:14:30;100258.59;;;16.88
63689;BMP280;54895;40.928;14.480;2023-04-15T12:19:26;100244.41;;;16.59
63689;BMP280;54895;40.928;14.480;2023-04-15T12:21:59;100197.78;;;16.64
63689;BMP280;54895;40.928;14.480;2023-04-15T12:24:26;100196.47;;;16.74
63689;BMP280;54895;40.928;14.480;2023-04-15T12:26:54;100163.53;;;16.36
63689;BMP280;54895;40.928;14.480;2023-04-15T12:29:27;100118.91;;;16.31
63689;BMP280;54895;40.928;14.480;2023-04-15T12:31:57;100154.78;;;16.64
63689;BMP280;54895;40.928;14.480;2023-04-15T12:34:32;100125.41;;;16.47
63689;BMP280;54895;40.928;14.480;2023-04-15T12:37:00;100121.44;;;16.67
63689;BMP280;54895;40.928;14.480;2023-04-15T12:39:29;100106.25;;;16.90
63689;BMP280;54895;40.928;14.480;2023-04-15T12:41:59;100169.94;;;16.78
63689;BMP280;54895;40.928;14.480;2023-04-15T12:44:26;100214.81;;;17.35
63689;BMP280;54895;40.928;14.480;2023-04-15T12:46:54;100239.72;;;17.45
63689;BMP280;54895;40.928;14.480;2023-04-15T12:49:22;100271.66;;;17.69
63689;BMP280;54895;40.928;14.480;2023-04-15T12:51:50;100271.31;;;18.15
63689;BMP280;54895;40.928;14.480;2023-04-15T12:54:18;100291.13;;;18.50
63689;BMP280;54895;40.928;14.480;2023-04-15T12:56:45;100304.88;;;18.54
63689;BMP280;54895;40.928;14.480;2023-04-15T12:59:12;100347.31;;;18.65
63689;BMP280;54895;40.928;14.480;2023-04-15T13:01:39;100356.81;;;18.86
63689;BMP280;54895;40.928;14.480;2023-04-15T13:04:06;100352.59;;;19.04
63689;BMP280;54895;40.928;14.480;2023-04-15T13:06:32;100339.84;;;18.63
63689;BMP280;54895;40.928;14.480;2023-04-15T13:08:59;100329.88;;;18.45
63689;BMP280;54895;40.928;14.480;2023-04-15T13:11:27;100335.75;;;18.53
63689;BMP280;54895;40.928;14.480;2023-04-15T13:13:56;100300.81;;;18.13
63689;BMP280;54895;40.928;14.480;2023-04-15T13:16:22;100293.38;;;18.23
63689;BMP280;54895;40.928;14.480;2023-04-15T13:18:49;100264.25;;;18.10
63689;BMP280;54895;40.928;14.480;2023-04-15T13:21:16;100281.22;;;18.22
63689;BMP280;54895;40.928;14.480;2023-04-15T13:23:42;100278.78;;;18.26
63689;BMP280;54895;40.928;14.480;2023-04-15T13:26:09;100293.28;;;18.42
63689;BMP280;54895;40.928;14.480;2023-04-15T13:28:35;100290.66;;;18.02
63689;BMP280;54895;40.928;14.480;2023-04-15T13:31:02;100277.13;;;17.81
63689;BMP280;54895;40.928;14.480;2023-04-15T13:33:28;100273.88;;;17.82
63689;BMP280;54895;40.928;14.480;2023-04-15T13:35:55;100267.06;;;17.81
63689;BMP280;54895;40.928;14.480;2023-04-15T13:38:24;100267.47;;;17.57
63689;BMP280;54895;40.928;14.480;2023-04-15T13:40:50;100251.16;;;17.55
63689;BMP280;54895;40.928;14.480;2023-04-15T13:43:17;100252.31;;;17.92
63689;BMP280;54895;40.928;14.480;2023-04-15T13:45:43;100243.72;;;17.84
63689;BMP280;54895;40.928;14.480;2023-04-15T13:48:10;100231.84;;;17.68
63689;BMP280;54895;40.928;14.480;2023-04-15T13:50:36;100228.06;;;17.61
63689;BMP280;54895;40.928;14.480;2023-04-15T13:53:02;100233.28;;;17.69
63689;BMP280;54895;40.928;14.480;2023-04-15T13:55:28;100232.06;;;17.51
63689;BMP280;54895;40.928;14.480;2023-04-15T13:57:55;100216.91;;;17.46
63689;BMP280;54895;40.928;14.480;2023-04-15T14:00:22;100224.56;;;17.40
63689;BMP280;54895;40.928;14.480;2023-04-15T14:02:48;100234.75;;;17.81
63689;BMP280;54895;40.928;14.480;2023-04-15T14:05:14;100240.72;;;17.89
63689;BMP280;54895;40.928;14.480;2023-04-15T14:07:41;100235.66;;;18.05
63689;BMP280;54895;40.928;14.480;2023-04-15T14:10:08;100234.34;;;17.85
63689;BMP280;54895;40.928;14.480;2023-04-15T14:12:35;100251.53;;;18.31
63689;BMP280;54895;40.928;14.480;2023-04-15T14:15:02;100244.09;;;18.20
63689;BMP280;54895;40.928;14.480;2023-04-15T14:17:28;100239.97;;;18.19
63689;BMP280;54895;40.928;14.480;2023-04-15T14:19:55;100283.41;;;18.56